Weather observations for the past three days for
Chester County Airport
Metric (Imperial)
Date Time (edt) Wind (kph) Vis. (km) Weather Sky Cond. Temperature (ºC) Relative Humidity Wind Chill (°C) Heat Index (°C) Pressure Precipitation (cm)
Air Dwpt 6 hour altimeter (cm) sea level (mb) 1 hr 3 hr 6 hr
Max. Min.
04 21:55 Vrbl 6 16.09 Fair CLR 17 4.9 45% 75.79 0.0
04 21:35 Vrbl 6 16.09 Fair CLR 17.1 4.8 44% 75.79 0.0
04 21:15 Calm 16.09 Fair CLR 17.1 4.9 45% 75.77 0.0
04 20:55 Vrbl 6 16.09 A Few Clouds FEW085 17.6 4.5 42% 75.77 0.0
04 20:35 Vrbl 7 14.48 Fair CLR 17.8 4.5 42% 75.77 0.0
04 20:15 Calm 14.48 Fair CLR 18.3 4.5 40% 75.74 0.0
04 19:55 Vrbl 7 14.48 Fair CLR 19.1 4.3 21.1 19.1 38% 75.74 0.0
04 19:35 S 9 16.09 Fair CLR 19.4 4.2 37% 75.74 0.0
04 19:15 Vrbl 9 14.48 Fair CLR 19.8 4.3 36% 75.74 0.0
04 18:55 S 17 16.09 Fair CLR 20.1 3.9 35% 75.74 0.0
04 18:35 Vrbl 11 16.09 Fair CLR 20.2 4.1 35% 75.74 0.0
04 18:15 S 11 G 26 14.48 Fair CLR 20.5 4 34% 75.74 0.0
04 17:55 S 17 G 28 16.09 Fair CLR 20.8 3.7 33% 75.74 0.0
04 17:35 S 19 G 33 16.09 Fair CLR 20.7 3.3 32% 75.74 0.0
04 17:15 Vrbl 9 14.48 Fair CLR 21.1 4.2 33% 75.74 0.0
04 16:55 Vrbl 11 14.48 Fair CLR 21 4 33% 75.74 0.0
04 16:35 S 13 G 30 14.48 Fair CLR 20.8 3.9 33% 75.74 0.0
04 16:15 S 19 G 33 12.87 Fair CLR 20.6 3.9 33% 75.77 0.0
04 15:55 Vrbl 11 14.48 Fair CLR 21 4.3 34% 75.79 0.0
04 15:35 S 13 14.48 Fair CLR 20.7 4.4 34% 75.79 0.0
04 15:15 SW 15 14.48 A Few Clouds FEW070 20.8 3.7 33% 75.82 0.0
04 14:55 Vrbl 7 14.48 Fair CLR 20.7 3.7 33% 75.84 0.0
04 14:35 S 13 14.48 Fair CLR 20.4 3.3 32% 75.84 0.0
04 14:15 SW 13 14.48 Fair CLR 20 3.2 33% 75.87 0.0
04 13:55 Vrbl 11 14.48 Fair CLR 20 2.8 20.3 11 32% 75.9 0.0
04 13:35 Vrbl 7 14.48 A Few Clouds FEW340 20.1 3.3 33% 75.9 0.0
04 13:15 S 13 14.48 A Few Clouds FEW340 19.3 2.5 33% 75.95 0.0
04 12:55 SW 17 G 26 14.48 A Few Clouds FEW370 19.2 2.3 33% 75.97 0.0
04 12:35 W 19 14.48 Fair CLR 19.2 2.6 33% 75.97 0.0
04 12:15 W 15 14.48 Fair CLR 18.7 2 33% 76 0.0
04 11:55 W 15 14.48 Fair CLR 18.4 2.1 34% 76.02 0.0
04 11:35 Vrbl 7 14.48 Fair CLR 17.9 1.5 33% 76.05 0.0
04 11:15 W 11 16.09 Fair CLR 17.9 1.8 34% 76.05 0.0
04 10:55 W 15 14.48 Fair CLR 17.2 1.9 36% 76.05 0.0
04 10:35 Vrbl 11 14.48 Fair CLR 16.6 3.1 41% 76.05 0.0
04 10:15 Vrbl 9 14.48 Fair CLR 15.9 3 42% 76.05 0.0
04 09:55 Vrbl 6 14.48 Fair CLR 14.8 4.9 52% 76.05 0.0
04 09:35 Calm 14.48 Fair CLR 13.8 5.2 56% 76.07 0.0
04 09:15 Vrbl 6 14.48 Fair CLR 13.2 5.3 59% 76.07 0.0
04 08:55 Vrbl 11 14.48 Fair CLR 12.6 5 60% 76.07 0.0
04 08:35 Vrbl 9 14.48 Fair CLR 12.1 5.2 63% 76.07 0.0
04 08:15 Vrbl 9 14.48 Fair CLR 11.4 4.9 65% 76.07 0.0
04 07:55 Calm 14.48 Fair CLR 10.5 4 10.5 6.6 64% 76.07 0.0
04 07:35 SW 7 16.09 Fair CLR 10.1 3.3 63% 76.07 0.0
04 07:15 Vrbl 7 14.48 Fair CLR 9.3 2 61% 9 76.1 0.0
04 06:55 Vrbl 7 14.48 A Few Clouds FEW130 8.4 0.5 58% 8 76.1 0.0
04 06:35 Vrbl 9 14.48 Fair CLR 7.9 -0.1 57% 7 76.1 0.0
04 06:15 Vrbl 7 12.87 Fair CLR 6.8 -1 58% 6 76.1 0.0
04 05:55 Vrbl 7 12.87 Fair CLR 6.8 -1.3 57% 6 76.1 0.0
04 05:35 Vrbl 6 16.09 A Few Clouds FEW130 7.1 -1.5 55% 76.1 0.0
04 05:15 SW 6 14.48 A Few Clouds FEW140 7.1 -1.3 56% 76.1 0.0
04 04:55 SW 9 14.48 Fair CLR 7.4 -0.9 56% 6 76.1 0.0
04 04:35 SW 9 16.09 Fair CLR 8.4 -1.4 50% 7 76.1 0.0
04 04:15 SW 9 16.09 Fair CLR 8.7 -1.6 49% 7 76.1 0.0
04 03:55 W 7 16.09 Fair CLR 8.7 -1.7 48% 8 76.1 0.0
04 03:15 Vrbl 9 16.09 Fair CLR 8.7 -1.5 49% 7 76.1 0.0
04 02:55 SW 9 16.09 Fair CLR 8.7 -1 51% 7 76.1 0.0
04 02:35 W 9 16.09 Fair CLR 9 -1.2 49% 8 76.1 0.0
04 02:15 Vrbl 9 16.09 Fair CLR 9.2 -1.3 48% 8 76.1 0.0
04 01:55 W 9 16.09 Fair CLR 9.5 -1.3 12.7 9.1 47% 8 76.1 0.0
04 01:35 W 11 16.09 Fair CLR 9.6 -1.6 46% 8 76.1 0.0
04 01:15 W 9 16.09 Fair CLR 9.3 -1.3 48% 8 76.12 0.0
04 00:55 W 11 16.09 Fair CLR 9.5 -1.5 47% 8 76.12 0.0
04 00:35 W 9 16.09 Fair CLR 9.1 -1.4 48% 8 76.12 0.0
04 00:15 Vrbl 9 16.09 Fair CLR 9.6 -1.6 46% 9 76.1 0.0
03 23:55 SW 7 16.09 Fair CLR 9.7 -1.8 45% 9 76.1 0.0
03 23:35 Vrbl 9 16.09 Fair CLR 9.9 -1.7 45% 9 76.07 0.0
03 23:15 SW 7 16.09 Fair CLR 10.1 -2 43% 76.07 0.0
03 22:55 SW 7 16.09 Fair CLR 10.2 -2.1 42% 76.07 0.0
03 22:35 W 7 16.09 Fair CLR 10.5 -2.2 41% 76.07 0.0
03 22:15 SW 7 16.09 Fair CLR 11 -2.5 39% 76.07 0.0
03 21:55 W 9 16.09 Fair CLR 11.4 -2.6 38% 76.07 0.0
03 21:35 SW 7 16.09 Fair CLR 11.4 -2.5 38% 76.05 0.0
03 21:15 W 9 16.09 Fair CLR 11.5 -2.7 37% 76.05 0.0
03 20:55 W 9 16.09 Fair CLR 11.9 -2.6 37% 76.02 0.0
03 20:35 SW 7 16.09 Fair CLR 12 -2.9 36% 76.02 0.0
03 20:15 W 9 16.09 Fair CLR 12.2 -2.9 35% 76 0.0
03 19:55 W 11 16.09 Fair CLR 13 -2.8 14.9 12 34% 75.97 0.0
03 19:35 W 11 16.09 Fair CLR 13.3 -3 32% 75.97 0.0
03 19:15 W 22 G 30 16.09 Fair CLR 13.6 -3 32% 75.97 0.0
03 18:55 W 20 16.09 Fair CLR 14 -2.7 32% 75.97 0.0
03 18:35 NW 19 16.09 Fair CLR 14.3 -2.7 31% 75.95 0.0
03 18:15 W 26 G 35 16.09 Fair CLR 14.3 -3.2 30% 75.97 0.0
03 17:55 W 15 16.09 A Few Clouds FEW080 14.6 -2.6 31% 75.95 0.0
03 17:35 W 20 G 35 14.48 A Few Clouds FEW080 14.5 -3.1 30% 75.97 0.0
03 17:15 W 26 16.09 A Few Clouds FEW080 14.4 -3.8 28% 75.95 0.0
03 16:55 NW 30 G 48 16.09 Mostly Cloudy BKN080 14.8 -3.5 28% 75.95 0.0
03 16:35 W 28 16.09 Partly Cloudy SCT080 14.7 -3.5 28% 75.97 0.0
03 16:15 W 31 G 43 16.09 A Few Clouds FEW080 14.3 -3.6 29% 75.97 0.0
03 15:55 W 26 G 48 16.09 Mostly Cloudy BKN075 14 -3.2 30% 75.97 0.0
03 15:35 W 26 16.09 Mostly Cloudy BKN075 12.9 -3.8 31% 76 0.0
03 14:55 NW 19 G 43 16.09 Partly Cloudy SCT070 13.3 -3.4 31% 76.02 0.0
03 14:35 W 31 G 46 14.48 Mostly Cloudy BKN070 13.4 -2.7 33% 76.05 0.0
03 14:15 NW 24 G 37 16.09 Overcast OVC070 12.4 -3.5 33% 76.05 0.0
03 13:55 NW 33 G 46 16.09 Mostly Cloudy and Breezy BKN070 12.9 -4 13.3 6.2 31% 76.05 0.0
03 13:35 NW 24 G 41 16.09 Partly Cloudy SCT070 12.5 -4.2 31% 76.05 0.0
03 13:15 NW 24 G 44 16.09 A Few Clouds FEW070 12.1 -4.3 32% 76.07 0.0
03 12:55 NW 30 G 43 16.09 A Few Clouds FEW065 11.6 -4.4 33% 76.07 0.0
03 12:35 NW 22 G 33 16.09 Mostly Cloudy BKN065 11.3 -3.9 35% 76.07 0.0
03 12:15 NW 19 G 39 16.09 Partly Cloudy SCT060 10.9 -3.5 37% 76.1 0.0
03 11:55 NW 26 16.09 Partly Cloudy SCT060 10.5 -3.9 36% 76.1 0.0
03 11:35 NW 22 G 44 16.09 Partly Cloudy SCT055 9.8 -3.6 39% 7 76.12 0.0
03 11:15 NW 28 G 39 16.09 A Few Clouds FEW050 10.1 -3.1 40% 76.12 0.0
03 10:55 NW 31 G 39 16.09 Mostly Cloudy SCT046 BKN055 8.1 -2.9 46% 4 76.12 0.0
03 10:35 N 22 G 31 16.09 Partly Cloudy SCT043 SCT055 9.2 -1.9 46% 6 76.12 0.0
03 10:15 NW 19 G 31 16.09 Overcast OVC042 9.1 -1.4 48% 7 76.12 0.0
03 09:55 NW 24 G 31 16.09 Mostly Cloudy BKN043 8.7 -1.5 49% 6 76.12 0.0
03 09:35 NW 19 G 33 16.09 Mostly Cloudy SCT040 BKN048 7.7 -1.2 54% 5 76.12 0.0
03 09:15 NW 22 16.09 Partly Cloudy SCT038 SCT047 7.3 -1.4 54% 4 76.12 0.0
03 08:55 NW 15 16.09 Partly Cloudy FEW037 SCT070 7.4 -0.8 56% 5 76.1 0.0
03 08:35 NW 28 G 39 16.09 Mostly Cloudy BKN070 6.4 -1.4 58% 2 76.1 0.0
03 08:15 NW 22 16.09 Mostly Cloudy BKN065 7.1 -1.1 56% 4 76.1 0.0
03 07:55 NW 26 G 37 16.09 Mostly Cloudy BKN060 6.8 -0.6 6.8 3.5 60% 3 76.07 0.0
03 07:35 NW 17 16.09 Mostly Cloudy BKN060 6.5 -0.1 63% 4 76.07 0.0
03 07:15 NW 15 16.09 Mostly Cloudy SCT060 BKN080 5.7 -0.8 63% 3 76.05 0.0
03 06:55 NW 22 16.09 Overcast SCT055 OVC075 5.9 -0.8 62% 2 76.02 0.0
03 06:35 NW 20 16.09 Overcast BKN055 OVC080 5.9 -0.3 65% 3 76 0.0
03 06:15 NW 20 16.09 Overcast BKN055 OVC075 5.9 0.1 67% 3 75.97 0.0
03 05:55 NW 15 16.09 Overcast FEW050 OVC070 5.7 0.8 71% 3 75.95 0.0
03 05:35 NW 15 16.09 Overcast BKN049 OVC070 5.8 0.8 71% 3 75.95 0.0
03 05:15 NW 17 16.09 Overcast OVC047 5.7 1.2 73% 3 75.92 0.0
03 04:55 NW 17 16.09 Overcast FEW039 BKN049 OVC060 5.4 1.3 75% 2 75.92 0.0
03 04:35 NW 17 16.09 Overcast OVC045 4.7 2 83% 1 75.92 0.0
03 04:15 W 19 16.09 Mostly Cloudy BKN045 4.7 1.9 82% 1 75.9 0.0
03 03:55 W 19 16.09 Mostly Cloudy BKN050 4.2 1.9 85% 1 75.87 0.0
03 03:35 NW 19 16.09 Partly Cloudy SCT050 4.3 1.9 85% 1 75.87 0.0
03 03:15 W 15 16.09 Fair CLR 4 1.8 86% 1 75.87 0.0
03 02:55 N 13 16.09 Fair CLR 5.2 1.6 78% 3 75.84 0.0
03 02:35 NW 11 16.09 Fair CLR 5 1.6 79% 3 75.84 0.0
03 02:15 NW 13 16.09 Fair CLR 4 1.4 83% 1 75.87 0.0
03 01:55 NW 7 16.09 Fair CLR 4.7 1.6 10.7 4.3 81% 3 75.9 0.0
03 01:35 NW 7 16.09 Fair CLR 4.8 1.5 79% 3 75.9 0.0
03 01:15 W 13 16.09 Fair CLR 5.2 1.6 78% 3 75.92 0.0
03 00:55 NW 17 16.09 Partly Cloudy SCT085 6.9 1.2 67% 4 75.92 0.0
03 00:35 NW 17 16.09 Mostly Cloudy BKN085 7.1 1.2 66% 4 75.92 0.0
03 00:15 NW 17 16.09 Overcast OVC085 7.4 1.1 65% 5 75.92 0.0
02 23:55 NW 24 16.09 Overcast OVC085 8.1 1 61% 5 75.95 0.0
02 23:35 NW 20 16.09 Overcast OVC085 8.4 1.4 62% 6 75.95 0.0
02 23:15 NW 20 16.09 Overcast OVC085 8.9 0.8 57% 6 75.95 0.0
02 22:55 NW 17 16.09 Overcast OVC085 8.9 0.7 57% 7 75.97 0.0
02 22:35 NW 19 16.09 Overcast OVC085 9.3 0.1 53% 7 75.97 0.0
02 22:15 NW 13 16.09 Overcast OVC085 9.6 -0.3 50% 8 75.97 0.0
02 21:55 NW 13 16.09 Overcast OVC085 9.7 -0.9 48% 8 75.97 0.0
02 21:35 NW 11 16.09 Overcast OVC085 9.5 -0.9 49% 8 75.95 0.0
02 21:15 NW 9 16.09 Mostly Cloudy BKN090 9.4 -1 49% 8 75.95 0.0
02 20:55 NW 11 16.09 Partly Cloudy SCT180 9.8 -1.1 47% 8 75.92 0.0
02 20:35 NW 13 16.09 Overcast FEW085 OVC190 10.1 -1.3 45% 75.92 0.0
02 20:15 NW 13 16.09 Overcast SCT085 OVC190 10.4 -1.4 44% 75.9 0.0
02 19:55 NW 9 16.09 Overcast SCT085 OVC190 10.6 -1.4 15.2 10.6 44% 75.9 0.0
02 19:35 NW 11 16.09 Overcast BKN085 OVC200 11 -1.7 41% 75.87 0.0
02 19:15 NW 11 16.09 Overcast BKN085 OVC180 11.5 -2 39% 75.87 0.0
02 18:55 N 13 16.09 Overcast BKN080 OVC180 11.8 -2.2 38% 75.87 0.0
02 18:35 NW 15 14.48 Overcast OVC080 12.2 -2.2 37% 75.87 0.0
02 18:15 NW 13 16.09 Overcast OVC080 13.4 -2 35% 75.87 0.0
02 17:55 NW 22 16.09 Mostly Cloudy BKN080 13.6 -1.8 35% 75.87 0.0
02 17:35 NW 20 16.09 Mostly Cloudy BKN080 14 -1.3 35% 75.84 0.0
02 17:15 NW 20 16.09 Mostly Cloudy BKN075 12.9 -1.9 36% 75.84 0.0
02 16:55 W 20 16.09 Mostly Cloudy BKN075 BKN200 13.3 -1.3 37% 75.82 0.0
02 16:35 NW 20 16.09 Overcast OVC070 13.8 -1.6 35% 75.82 0.0
02 16:15 NW 26 G 33 16.09 Overcast OVC070 13.6 -1.5 35% 75.84 0.0
02 15:55 W 28 16.09 Mostly Cloudy BKN070 15 -2 31% 75.84 0.0
02 15:35 NW 15 16.09 Mostly Cloudy BKN070 BKN210 14.3 -1.2 35% 75.87 0.0
02 15:15 NW 15 16.09 Mostly Cloudy BKN065 12.9 -1.5 37% 75.9 0.0
02 14:55 NW 17 16.09 Mostly Cloudy BKN065 14.5 -0.2 37% 75.92 0.0
02 14:35 NW 11 16.09 Overcast BKN065 OVC200 13.2 -0.8 38% 75.95 0.0
02 14:15 NW 11 16.09 Overcast SCT060 OVC210 13 -0.8 39% 75.95 0.0
02 13:55 N 17 16.09 Overcast BKN055 BKN070 OVC200 12.5 -0.7 13.1 7.3 40% 75.95 0.0
02 13:35 N 9 16.09 Mostly Cloudy FEW055 BKN200 BKN220 13 0 41% 75.95 0.0
02 13:15 NW 13 16.09 Mostly Cloudy FEW050 BKN200 12.6 0.4 43% 75.97 0.0
02 12:55 N 13 16.09 Mostly Cloudy BKN050 BKN200 12.6 0.7 44% 75.97 0.0
02 12:35 NW 15 16.09 Overcast SCT049 BKN190 OVC210 12.5 1 46% 75.97 0.0
02 12:15 NE 15 16.09 Overcast SCT050 OVC200 12.7 1.2 46% 76 0.0
02 11:55 N 15 16.09 Mostly Cloudy FEW048 BKN200 11.6 1 48% 76.02 0.0
02 11:35 N 13 16.09 Mostly Cloudy BKN200 BKN220 11.5 1.1 49% 76 0.0
02 11:15 Vrbl 11 16.09 Mostly Cloudy BKN200 10.9 1.9 54% 76.02 0.0
02 10:55 N 15 16.09 Mostly Cloudy BKN210 10.7 2.2 56% 76 0.0
02 10:35 N 17 16.09 Mostly Cloudy BKN220 10.2 1.9 57% 76 0.0
02 10:15 N 17 16.09 Partly Cloudy FEW200 SCT230 9.9 1.6 57% 8 76 0.0
02 09:55 N 13 16.09 Mostly Cloudy FEW022 BKN230 9.2 4.4 72% 7 76 0.0
02 09:35 NW 19 16.09 Mostly Cloudy BKN021 BKN230 9.2 4.8 74% 7 76.02 0.0
02 09:15 N 20 16.09 Mostly Cloudy BKN020 BKN075 8.6 4.8 77% 6 76.02 0.0
02 08:55 N 19 16.09 Overcast BKN018 BKN024 OVC080 8.4 5.1 80% 6 76.02 0.0
02 08:35 N 19 G 31 16.09 Mostly Cloudy SCT018 SCT024 BKN090 8.2 5 80% 6 76.02 0.0
02 08:15 NW 17 16.09 Mostly Cloudy BKN015 BKN095 8.1 5.2 82% 6 76 0.0
02 07:55 NW 22 16.09 Mostly Cloudy BKN015 7.4 5.1 10.1 7.4 86% 4 76 0.0
02 07:35 NW 19 16.09 Partly Cloudy SCT015 7.4 5.4 87% 5 76 0.0
02 07:15 NW 15 16.09 Partly Cloudy FEW017 SCT250 7.7 5.3 85% 5 75.97 0.0
02 06:55 NW 17 14.48 Mostly Cloudy FEW016 BKN085 7.8 5.7 87% 5 75.95 0.0
02 06:35 NW 22 14.48 Overcast SCT016 BKN023 OVC095 7.9 6.3 90% 5 75.95 0.0
02 06:15 NW 26 16.09 Mostly Cloudy BKN019 BKN025 8.1 6.2 88% 5 75.92 0.0
02 05:55 W 13 16.09 A Few Clouds FEW075 8 6.2 89% 6 75.92 0.0
02 05:35 NW 19 16.09 Mostly Cloudy BKN075 8.3 6.6 89% 6 75.92 0.0
02 05:15 W 17 16.09 Mostly Cloudy SCT021 BKN075 8.7 7.7 94% 6 75.92 0.0
02 04:55 W 6 16.09 Overcast FEW023 OVC070 8.9 7.5 91% 75.92 0.0
02 04:35 Calm 16.09 Overcast OVC070 9 7.5 90% 75.9 0.0
02 04:15 NW 6 16.09 Overcast OVC070 8.5 7.4 93% 75.87 0.0
02 03:55 Calm 16.09 Overcast OVC060 9.6 7.4 86% 75.87 0.0
02 03:35 N 6 16.09 Overcast BKN055 OVC065 9.8 7.3 85% 75.87 0.0
02 03:15 NW 7 16.09 Overcast BKN047 OVC065 9.7 7.3 85% 9 75.9 0.0
02 02:55 Calm 16.09 Overcast SCT046 BKN110 OVC130 9.3 7.5 89% 75.92 0.0
02 02:35 NW 6 16.09 Overcast FEW042 SCT075 BKN110 OVC130 9.8 7.1 83% 75.9 0.0
02 02:15 N 11 16.09 Overcast BKN075 OVC130 10 7.2 83% 9 75.9 0.0
02 01:55 NW 17 16.09 Overcast FEW060 SCT080 OVC130 10 7.5 13.3 9.4 85% 8 75.92 0.0
02 01:35 NW 13 14.48 Light Rain SCT065 BKN080 BKN140 9.6 8 90% 8 75.92 0.0
02 01:15 W 7 16.09 Overcast BKN065 OVC085 10.7 7.4 80% 75.92 0.0
02 00:55 Vrbl 6 16.09 Overcast OVC065 10.5 8.2 86% 75.92 0.0
02 00:35 Calm 16.09 Overcast OVC070 10.7 8 84% 75.92 0.0
02 00:15 W 6 14.48 Overcast OVC065 10.2 9 92% 75.92 0.0
01 23:55 Calm 14.48 Overcast OVC065 9.8 9.1 95% 75.92 0.0
01 23:35 Calm 16.09 Overcast BKN070 OVC090 10.2 8.9 92% 75.92 0.0
01 23:15 Calm 12.87 Light Rain FEW046 BKN070 BKN080 10.5 8.5 88% 75.9 0.0
01 22:55 Calm 16.09 Overcast BKN075 OVC100 10.8 8 83% 75.9 0.0
01 22:35 Calm 16.09 Overcast SCT075 OVC100 10.7 7.5 81% 75.9 0.0
01 22:15 Calm 16.09 Overcast OVC070 11.1 6.7 75% 75.92 0.0
Date Time (edt) Wind (kph) Vis. (km) Weather Sky Cond. Air Dwpt Max. Min. Relative Humidity Wind Chill (°C) Heat Index (°C) altimeter (cm) sea level (mb) 1 hr 3 hr 6 hr
6 hour
Temperature (ºC) Pressure Precipitation (cm)